createdAt,value
2022-09-09T00:03:08.731Z,63.63
2022-09-09T00:08:40.103Z,63.29
2022-09-09T00:14:09.255Z,63.43
2022-09-09T00:19:41.029Z,63.86
2022-09-09T00:25:12.320Z,63.40
2022-09-09T00:30:36.115Z,63.23
2022-09-09T00:35:59.571Z,63.46
2022-09-09T00:41:23.729Z,63.32
2022-09-09T00:46:58.859Z,62.55
2022-09-09T00:52:53.346Z,62.63
2022-09-09T00:58:15.209Z,62.29
2022-09-09T01:03:59.829Z,61.67
2022-09-09T01:09:46.887Z,61.49
2022-09-09T01:15:18.841Z,60.63
2022-09-09T01:20:47.082Z,60.69
2022-09-09T01:26:15.625Z,61.36
2022-09-09T01:31:43.803Z,60.84
2022-09-09T01:37:11.312Z,60.71
2022-09-09T01:42:33.075Z,61.05
2022-09-09T01:47:54.776Z,60.72
2022-09-09T01:53:19.061Z,60.81
2022-09-09T01:58:58.994Z,61.06
2022-09-09T02:04:39.751Z,61.26
2022-09-09T02:10:30.674Z,60.55
2022-09-09T02:15:52.356Z,61.95
2022-09-09T02:21:15.786Z,62.55
2022-09-09T02:26:41.944Z,62.60
2022-09-09T02:32:09.005Z,62.33
2022-09-09T02:37:37.493Z,63.44
2022-09-09T02:43:00.997Z,63.92
2022-09-09T02:48:31.122Z,63.76
2022-09-09T02:54:27.852Z,64.12
2022-09-09T02:59:50.823Z,64.40
2022-09-09T03:05:14.034Z,65.16
2022-09-09T03:10:36.199Z,64.60
2022-09-09T03:15:57.971Z,65.39
2022-09-09T03:21:19.736Z,65.10
2022-09-09T03:26:42.464Z,64.97
2022-09-09T03:32:04.469Z,65.07
2022-09-09T03:37:26.261Z,65.07
2022-09-09T03:42:49.047Z,64.79
2022-09-09T03:48:12.895Z,65.04
2022-09-09T03:53:35.290Z,64.66
2022-09-09T03:58:57.014Z,63.54
2022-09-09T04:04:18.708Z,63.10
2022-09-09T04:09:40.461Z,66.36
2022-09-09T04:15:03.070Z,64.88
2022-09-09T04:20:24.886Z,64.01
2022-09-09T04:25:48.020Z,63.06
2022-09-09T04:31:19.616Z,62.90
2022-09-09T04:36:41.475Z,62.71
2022-09-09T04:42:04.177Z,62.99
2022-09-09T04:47:25.949Z,64.84
2022-09-09T04:52:47.737Z,65.59
2022-09-09T04:58:09.596Z,66.88
2022-09-09T05:03:31.345Z,67.15
2022-09-09T05:08:53.582Z,67.08
2022-09-09T05:14:15.919Z,65.80
2022-09-09T05:19:37.753Z,65.69
2022-09-09T05:24:59.505Z,64.79
2022-09-09T05:30:23.645Z,64.43
2022-09-09T05:35:45.476Z,65.50
2022-09-09T05:41:08.338Z,65.60
2022-09-09T05:46:30.297Z,66.20
2022-09-09T05:51:52.256Z,65.18
2022-09-09T05:57:14.175Z,64.68
2022-09-09T06:02:38.191Z,64.80
2022-09-09T06:07:59.947Z,64.04
2022-09-09T06:13:21.639Z,63.93
2022-09-09T06:18:44.504Z,63.94
2022-09-09T06:24:08.270Z,63.73
2022-09-09T06:29:29.991Z,63.44
2022-09-09T06:34:51.765Z,63.98
2022-09-09T06:40:13.528Z,63.73
2022-09-09T06:45:37.568Z,63.47
2022-09-09T06:51:14.764Z,63.97
2022-09-09T06:56:38.637Z,63.29
2022-09-09T07:02:00.498Z,63.53
2022-09-09T07:07:22.283Z,63.48
2022-09-09T07:12:44.051Z,63.74
2022-09-09T07:18:06.328Z,63.35
2022-09-09T07:23:28.044Z,62.89
2022-09-09T07:28:50.696Z,62.61
2022-09-09T07:34:12.481Z,63.02
2022-09-09T07:39:34.530Z,63.66
2022-09-09T07:44:56.281Z,62.96
2022-09-09T07:50:18.052Z,63.07
2022-09-09T07:55:40.015Z,63.70
2022-09-09T08:01:07.992Z,63.37
2022-09-09T08:06:34.060Z,64.80
2022-09-09T08:11:57.414Z,64.10
2022-09-09T08:17:19.087Z,64.49
2022-09-09T08:22:41.135Z,61.93
2022-09-09T08:28:04.215Z,62.41
2022-09-09T08:33:26.575Z,63.00
2022-09-09T08:38:51.275Z,61.92
2022-09-09T08:44:24.328Z,60.60
2022-09-09T08:49:57.105Z,60.08
2022-09-09T08:55:28.935Z,60.59
2022-09-09T09:01:09.215Z,57.75
2022-09-09T09:06:50.950Z,56.12
2022-09-09T09:12:25.230Z,56.02
2022-09-09T09:17:47.071Z,56.08
2022-09-09T09:23:20.457Z,55.39
2022-09-09T09:28:42.225Z,56.50
2022-09-09T09:34:04.078Z,59.79
2022-09-09T09:45:36.318Z,59.73
2022-09-09T09:51:01.614Z,61.07
2022-09-09T09:56:30.055Z,58.71
2022-09-09T10:01:51.969Z,57.10
2022-09-09T10:07:20.775Z,56.37
2022-09-09T10:12:51.327Z,55.99
2022-09-09T10:18:34.064Z,56.81
2022-09-09T10:24:14.321Z,56.11
2022-09-09T10:29:44.952Z,55.71
2022-09-09T10:35:25.145Z,55.41
2022-09-09T10:40:52.370Z,56.18
2022-09-09T10:46:31.037Z,56.15
2022-09-09T10:52:07.815Z,55.91
2022-09-09T10:57:32.928Z,56.27
2022-09-09T11:03:01.517Z,57.03
2022-09-09T11:08:29.722Z,55.78
2022-09-09T11:14:15.894Z,55.68
2022-09-09T11:19:44.581Z,55.91
2022-09-09T11:25:16.991Z,50.46
2022-09-09T11:30:57.583Z,48.67
2022-09-09T11:36:39.099Z,49.22
2022-09-09T11:42:21.419Z,51.41
2022-09-09T11:47:53.445Z,51.21
2022-09-09T11:53:15.103Z,52.06
2022-09-09T11:58:54.389Z,52.40
2022-09-09T12:04:28.863Z,52.89
2022-09-09T12:09:57.610Z,51.11
2022-09-09T12:15:23.928Z,50.83
2022-09-09T12:21:30.580Z,49.15
2022-09-09T12:27:08.086Z,48.97
2022-09-09T12:32:31.020Z,48.51
2022-09-09T12:38:04.234Z,47.36
2022-09-09T12:43:27.491Z,46.15
2022-09-09T12:48:49.313Z,45.58
2022-09-09T12:54:15.403Z,46.51
2022-09-09T12:59:43.037Z,47.29
2022-09-09T13:05:17.330Z,47.73
2022-09-09T13:10:54.545Z,47.82
2022-09-09T13:16:32.568Z,46.95
2022-09-09T13:21:55.004Z,46.78
2022-09-09T13:27:30.383Z,46.91
2022-09-09T13:33:04.808Z,47.53
2022-09-09T13:38:29.509Z,47.09
2022-09-09T13:43:53.057Z,46.30
2022-09-09T13:49:18.104Z,44.88
2022-09-09T13:54:40.600Z,45.57
2022-09-09T14:00:06.359Z,44.83
2022-09-09T14:05:30.644Z,44.87
2022-09-09T14:10:53.301Z,43.92
2022-09-09T14:16:15.037Z,44.29
2022-09-09T14:21:36.754Z,43.66
2022-09-09T14:26:58.479Z,43.17
2022-09-09T14:32:20.466Z,43.76
2022-09-09T14:37:42.184Z,44.19
2022-09-09T14:43:05.752Z,43.62
2022-09-09T14:48:27.448Z,43.83
2022-09-09T14:53:53.017Z,43.38
2022-09-09T14:59:14.726Z,43.44
2022-09-09T15:04:36.486Z,41.95
2022-09-09T15:09:58.608Z,42.17
2022-09-09T15:15:20.378Z,42.10
2022-09-09T15:20:47.200Z,41.75
2022-09-09T15:26:10.451Z,43.20
2022-09-09T15:31:33.080Z,42.83
2022-09-09T15:36:56.446Z,44.29
2022-09-09T15:42:18.171Z,44.71
2022-09-09T15:47:40.421Z,44.50
2022-09-09T15:53:02.157Z,45.13
2022-09-09T15:58:23.926Z,46.02
2022-09-09T16:03:47.671Z,44.49
2022-09-09T16:09:10.925Z,44.88
2022-09-09T16:14:36.604Z,44.02
2022-09-09T16:19:58.591Z,45.59
2022-09-09T16:25:21.419Z,45.02
2022-09-09T16:30:43.145Z,45.09
2022-09-09T16:36:09.767Z,45.07
2022-09-09T16:41:32.491Z,46.91
2022-09-09T16:47:00.240Z,46.49
2022-09-09T16:52:22.554Z,46.76
2022-09-09T16:57:44.291Z,47.55
2022-09-09T17:03:06.147Z,48.30
2022-09-09T17:08:27.899Z,47.97
2022-09-09T17:13:50.466Z,47.53
2022-09-09T17:19:13.672Z,48.27
2022-09-09T17:24:36.385Z,49.11
2022-09-09T17:29:59.292Z,49.39
2022-09-09T17:35:21.158Z,50.53
2022-09-09T17:40:43.720Z,50.70
2022-09-09T17:46:17.293Z,51.36
2022-09-09T17:51:39.463Z,51.64
2022-09-09T17:57:01.636Z,51.92
2022-09-09T18:02:23.444Z,52.17
2022-09-09T18:07:45.437Z,53.61
2022-09-09T18:13:09.956Z,54.25
2022-09-09T18:18:31.672Z,53.59
2022-09-09T18:23:53.666Z,53.57
2022-09-09T18:29:25.268Z,54.68
2022-09-09T18:34:47.118Z,54.55
2022-09-09T18:40:08.878Z,55.32
2022-09-09T18:45:30.608Z,55.83
2022-09-09T18:50:52.671Z,56.27
2022-09-09T18:56:14.454Z,55.78
2022-09-09T19:01:36.373Z,55.33
2022-09-09T19:06:58.894Z,55.33
2022-09-09T19:12:20.955Z,55.44
2022-09-09T19:17:42.790Z,55.64
2022-09-09T19:23:05.424Z,55.74
2022-09-09T19:28:27.512Z,56.28
2022-09-09T19:33:50.801Z,57.11
2022-09-09T19:39:14.072Z,57.63
2022-09-09T19:44:35.847Z,57.37
2022-09-09T19:49:57.577Z,57.95
2022-09-09T19:55:19.983Z,58.41
2022-09-09T20:00:41.817Z,58.33
2022-09-09T20:06:08.538Z,57.75
2022-09-09T20:11:30.498Z,58.94
2022-09-09T20:16:52.404Z,58.93
2022-09-09T20:22:14.539Z,58.93
2022-09-09T20:27:36.208Z,58.52
2022-09-09T20:32:57.928Z,58.60
2022-09-09T20:38:19.620Z,58.71
2022-09-09T20:43:49.458Z,58.88
2022-09-09T20:49:11.624Z,59.68
2022-09-09T20:54:35.143Z,58.98
2022-09-09T20:59:56.965Z,58.56
2022-09-09T21:05:23.944Z,58.36
2022-09-09T21:10:46.938Z,58.04
2022-09-09T21:16:13.804Z,58.41
2022-09-09T21:21:36.240Z,59.01
2022-09-09T21:26:59.498Z,59.81
2022-09-09T21:32:21.386Z,60.25
2022-09-09T21:37:43.138Z,60.34
2022-09-09T21:43:06.143Z,60.50
2022-09-09T21:48:27.997Z,61.11
2022-09-09T21:53:49.844Z,61.48
2022-09-09T21:59:12.053Z,61.05
2022-09-09T22:04:36.638Z,61.56
2022-09-09T22:09:58.458Z,61.12
2022-09-09T22:15:20.579Z,60.63
2022-09-09T22:20:45.036Z,60.13
2022-09-09T22:26:07.253Z,60.09
2022-09-09T22:31:29.166Z,59.89
2022-09-09T22:36:51.076Z,60.36
2022-09-09T22:42:13.701Z,60.73
2022-09-09T22:47:35.623Z,60.54
2022-09-09T22:52:57.354Z,60.46
2022-09-09T22:58:19.052Z,60.30
2022-09-09T23:03:42.128Z,60.53
2022-09-09T23:09:04.118Z,60.56
2022-09-09T23:14:26.117Z,60.43
2022-09-09T23:19:56.981Z,62.44
2022-09-09T23:25:18.822Z,68.90
2022-09-09T23:30:42.054Z,76.16
2022-09-09T23:36:08.376Z,78.38
2022-09-09T23:41:30.959Z,82.12
2022-09-09T23:46:52.639Z,85.20
2022-09-09T23:52:14.669Z,85.61
2022-09-09T23:57:36.502Z,86.29
